createdAt,value
2019-03-19T00:00:20.544Z,14.50
2019-03-19T00:02:47.971Z,10.47
2019-03-19T00:05:15.383Z,11.47
2019-03-19T00:07:42.814Z,16.93
2019-03-19T00:10:10.275Z,13.23
2019-03-19T00:12:37.721Z,11.00
2019-03-19T00:15:05.123Z,14.17
2019-03-19T00:17:32.540Z,11.60
2019-03-19T00:20:00.007Z,12.03
2019-03-19T00:22:27.393Z,13.47
2019-03-19T00:24:54.823Z,19.13
2019-03-19T00:27:22.232Z,12.23
2019-03-19T00:29:49.707Z,12.23
2019-03-19T00:32:17.112Z,11.03
2019-03-19T00:34:44.563Z,15.67
2019-03-19T00:37:11.971Z,14.87
2019-03-19T00:39:39.371Z,16.30
2019-03-19T00:42:06.808Z,14.30
2019-03-19T00:44:34.216Z,15.63
2019-03-19T00:47:01.657Z,13.37
2019-03-19T00:49:29.069Z,17.10
2019-03-19T00:51:56.522Z,15.30
2019-03-19T00:54:23.906Z,14.90
2019-03-19T00:56:51.336Z,18.20
2019-03-19T00:59:18.770Z,18.33
2019-03-19T01:01:46.204Z,13.27
2019-03-19T01:04:13.645Z,13.93
2019-03-19T01:06:41.048Z,16.47
2019-03-19T01:09:08.473Z,12.10
2019-03-19T01:11:35.882Z,12.10
2019-03-19T01:14:03.319Z,11.27
2019-03-19T01:16:30.719Z,8.70
2019-03-19T01:18:58.153Z,12.33
2019-03-19T01:21:25.559Z,12.33
2019-03-19T01:23:52.995Z,13.37
2019-03-19T01:26:20.405Z,12.27
2019-03-19T01:28:47.848Z,10.87
2019-03-19T01:31:15.281Z,17.50
2019-03-19T01:33:42.736Z,14.80
2019-03-19T01:36:10.172Z,11.43
2019-03-19T01:38:37.610Z,11.40
2019-03-19T01:41:05.052Z,13.30
2019-03-19T01:43:32.462Z,14.10
2019-03-19T01:45:59.889Z,12.37
2019-03-19T01:48:27.296Z,12.30
2019-03-19T01:50:54.733Z,14.57
2019-03-19T01:53:22.149Z,14.33
2019-03-19T01:55:49.557Z,17.77
2019-03-19T01:58:16.997Z,13.70
2019-03-19T02:00:44.423Z,18.77
2019-03-19T02:03:11.830Z,15.57
2019-03-19T02:05:39.278Z,16.97
2019-03-19T02:08:06.690Z,11.47
2019-03-19T02:10:34.096Z,16.57
2019-03-19T02:13:01.536Z,12.90
2019-03-19T02:15:28.964Z,13.33
2019-03-19T02:17:56.361Z,14.93
2019-03-19T02:20:23.803Z,17.27
2019-03-19T02:22:51.225Z,11.00
2019-03-19T02:25:18.626Z,18.50
2019-03-19T02:27:46.071Z,22.77
2019-03-19T02:30:13.490Z,17.27
2019-03-19T02:32:40.954Z,21.33
2019-03-19T02:35:08.386Z,12.00
2019-03-19T02:37:35.824Z,13.50
2019-03-19T02:40:03.267Z,17.73
2019-03-19T02:42:30.669Z,17.80
2019-03-19T02:44:58.103Z,13.77
2019-03-19T02:47:25.547Z,15.73
2019-03-19T02:49:52.957Z,15.13
2019-03-19T02:52:20.388Z,16.23
2019-03-19T02:54:47.814Z,12.33
2019-03-19T02:57:15.237Z,12.83
2019-03-19T02:59:42.680Z,13.37
2019-03-19T03:02:10.102Z,13.43
2019-03-19T03:04:37.508Z,14.90
2019-03-19T03:07:04.952Z,15.30
2019-03-19T03:09:32.365Z,19.57
2019-03-19T03:11:59.823Z,22.83
2019-03-19T03:14:27.238Z,17.40
2019-03-19T03:16:54.654Z,16.80
2019-03-19T03:19:22.102Z,18.33
2019-03-19T03:21:50.709Z,12.60
2019-03-19T03:24:16.947Z,11.37
2019-03-19T03:26:48.350Z,13.80
2019-03-19T03:29:11.782Z,19.87
2019-03-19T03:31:39.209Z,19.60
2019-03-19T03:34:06.646Z,20.60
2019-03-19T03:36:34.049Z,19.13
2019-03-19T03:39:01.482Z,16.87
2019-03-19T03:41:28.892Z,24.00
2019-03-19T03:43:56.332Z,24.80
2019-03-19T03:46:23.749Z,15.47
2019-03-19T03:48:51.199Z,19.27
2019-03-19T03:51:18.618Z,17.83
2019-03-19T03:53:46.061Z,21.23
2019-03-19T03:56:13.494Z,21.63
2019-03-19T03:58:40.928Z,16.20
2019-03-19T04:01:08.354Z,19.80
2019-03-19T04:03:35.767Z,21.53
2019-03-19T04:06:03.208Z,24.00
2019-03-19T04:08:30.624Z,29.03
2019-03-19T04:10:58.060Z,21.73
2019-03-19T04:13:25.478Z,26.37
2019-03-19T04:15:52.920Z,27.73
2019-03-19T04:18:20.313Z,20.87
2019-03-19T04:20:47.757Z,25.23
2019-03-19T04:23:15.175Z,26.23
2019-03-19T04:25:42.612Z,22.67
2019-03-19T04:28:10.051Z,20.67
2019-03-19T04:30:37.489Z,18.43
2019-03-19T04:33:04.900Z,23.73
2019-03-19T04:35:32.350Z,25.17
2019-03-19T04:37:59.810Z,16.80
2019-03-19T04:40:27.223Z,19.37
2019-03-19T04:42:54.665Z,20.10
2019-03-19T04:45:22.071Z,16.53
2019-03-19T04:47:49.485Z,20.20
2019-03-19T04:50:17.256Z,20.83
2019-03-19T04:52:44.738Z,17.87
2019-03-19T04:55:12.099Z,18.77
2019-03-19T04:57:39.556Z,21.77
2019-03-19T05:00:15.595Z,23.23
2019-03-19T05:02:43.006Z,23.23
2019-03-19T05:05:10.442Z,25.67
2019-03-19T05:07:37.891Z,29.73
2019-03-19T05:10:05.294Z,25.27
2019-03-19T05:12:32.737Z,21.60
2019-03-19T05:15:00.302Z,28.53
2019-03-19T05:17:27.578Z,24.03
2019-03-19T05:19:54.991Z,22.07
2019-03-19T05:22:22.438Z,30.23
2019-03-19T05:24:49.838Z,25.50
2019-03-19T05:27:17.259Z,23.33
2019-03-19T05:29:44.701Z,29.40
2019-03-19T05:32:12.100Z,27.77
2019-03-19T05:34:39.542Z,27.13
2019-03-19T05:37:06.971Z,27.63
2019-03-19T05:39:34.382Z,28.30
2019-03-19T05:42:01.814Z,29.87
2019-03-19T05:44:29.238Z,26.17
2019-03-19T05:46:56.681Z,30.57
2019-03-19T05:49:24.127Z,29.20
2019-03-19T05:51:51.541Z,30.33
2019-03-19T05:54:19.075Z,25.03
2019-03-19T05:56:46.515Z,24.17
2019-03-19T05:59:13.957Z,29.10
2019-03-19T06:01:41.361Z,29.97
2019-03-19T06:04:08.809Z,32.57
2019-03-19T06:06:36.268Z,27.10
2019-03-19T06:09:03.707Z,28.37
2019-03-19T06:11:31.112Z,31.17
2019-03-19T06:13:58.540Z,27.97
2019-03-19T06:16:25.974Z,29.50
2019-03-19T06:18:53.422Z,22.27
2019-03-19T06:21:20.832Z,27.40
2019-03-19T06:23:48.381Z,36.27
2019-03-19T06:26:15.784Z,23.70
2019-03-19T06:28:43.210Z,29.43
2019-03-19T06:31:10.643Z,25.67
2019-03-19T06:33:38.089Z,23.70
2019-03-19T06:36:05.506Z,27.57
2019-03-19T06:38:32.947Z,33.17
2019-03-19T06:41:00.352Z,25.47
2019-03-19T06:43:27.792Z,38.67
2019-03-19T06:45:55.210Z,35.80
2019-03-19T06:48:22.646Z,33.77
2019-03-19T06:50:50.048Z,30.40
2019-03-19T06:53:17.502Z,34.27
2019-03-19T06:55:44.908Z,30.67
2019-03-19T06:58:12.359Z,38.03
2019-03-19T07:00:39.789Z,31.53
2019-03-19T07:03:07.201Z,33.73
2019-03-19T07:05:34.657Z,29.43
2019-03-19T07:08:02.066Z,30.77
2019-03-19T07:10:29.505Z,30.50
2019-03-19T07:12:56.921Z,34.40
2019-03-19T07:15:24.362Z,26.57
2019-03-19T07:17:51.806Z,35.23
2019-03-19T07:20:25.164Z,35.50
2019-03-19T07:22:52.585Z,38.13
2019-03-19T07:25:19.980Z,28.20
2019-03-19T07:27:47.421Z,36.77
2019-03-19T07:30:20.456Z,35.63
2019-03-19T07:32:47.865Z,31.07
2019-03-19T07:35:15.280Z,35.17
2019-03-19T07:37:42.710Z,36.27
2019-03-19T07:40:10.136Z,30.60
2019-03-19T07:42:37.560Z,24.20
2019-03-19T07:45:04.992Z,26.17
2019-03-19T07:47:32.387Z,31.90
2019-03-19T07:49:59.812Z,24.10
2019-03-19T07:52:27.205Z,25.70
2019-03-19T07:54:54.634Z,21.07
2019-03-19T07:57:22.038Z,20.83
2019-03-19T07:59:49.469Z,20.70
2019-03-19T08:02:16.870Z,19.83
2019-03-19T08:04:44.288Z,21.50
2019-03-19T08:07:11.691Z,21.40
2019-03-19T08:09:39.187Z,18.43
2019-03-19T08:12:06.514Z,17.20
2019-03-19T08:14:33.932Z,23.93
2019-03-19T08:17:01.342Z,15.97
2019-03-19T08:19:28.771Z,17.37
2019-03-19T08:21:56.161Z,16.27
2019-03-19T08:24:23.600Z,18.13
2019-03-19T08:26:51.012Z,15.23
2019-03-19T08:29:18.438Z,15.40
2019-03-19T08:31:45.856Z,20.00
2019-03-19T08:34:13.264Z,19.97
2019-03-19T08:36:40.697Z,19.00
2019-03-19T08:39:08.085Z,22.90
2019-03-19T08:41:35.506Z,15.27
2019-03-19T08:44:02.912Z,13.97
2019-03-19T08:46:30.346Z,18.40
2019-03-19T08:48:57.743Z,15.73
2019-03-19T08:51:25.145Z,15.70
2019-03-19T08:53:52.579Z,15.80
2019-03-19T08:56:19.989Z,13.23
2019-03-19T08:58:47.415Z,22.60
2019-03-19T09:01:14.811Z,15.97
2019-03-19T09:03:42.264Z,14.60
2019-03-19T09:06:09.637Z,15.77
2019-03-19T09:08:37.054Z,17.67
2019-03-19T09:11:04.468Z,21.07
2019-03-19T09:13:31.888Z,18.33
2019-03-19T09:15:59.286Z,16.67
2019-03-19T09:18:26.708Z,16.23
2019-03-19T09:20:54.174Z,18.10
2019-03-19T09:23:21.518Z,17.33
2019-03-19T09:25:48.937Z,15.30
2019-03-19T09:28:16.373Z,15.70
2019-03-19T09:30:43.859Z,16.70
2019-03-19T09:33:11.213Z,14.10
2019-03-19T09:35:38.633Z,16.37
2019-03-19T09:38:06.036Z,18.17
2019-03-19T09:40:33.466Z,16.83
2019-03-19T09:43:00.870Z,16.10
2019-03-19T09:45:28.301Z,15.90
2019-03-19T09:47:55.721Z,18.40
2019-03-19T09:50:23.120Z,17.30
2019-03-19T09:52:50.535Z,17.57
2019-03-19T09:55:17.970Z,16.43
2019-03-19T09:57:45.393Z,19.70
2019-03-19T10:00:21.436Z,20.43
2019-03-19T10:02:48.856Z,17.63
2019-03-19T10:05:16.299Z,19.03
2019-03-19T10:07:43.729Z,19.37
2019-03-19T10:10:16.665Z,17.47
2019-03-19T10:12:44.094Z,18.53
2019-03-19T10:15:11.514Z,16.87
2019-03-19T10:17:38.956Z,23.70
2019-03-19T10:20:17.654Z,23.70
2019-03-19T10:22:42.577Z,18.17
2019-03-19T10:25:12.486Z,18.20
2019-03-19T10:27:39.896Z,15.23
2019-03-19T10:30:16.157Z,16.27
2019-03-19T10:32:43.577Z,14.30
2019-03-19T10:35:10.979Z,15.63
2019-03-19T10:37:38.399Z,16.70
2019-03-19T10:40:05.860Z,14.47
2019-03-19T10:42:33.251Z,33.17
2019-03-19T10:45:00.660Z,16.70
2019-03-19T10:47:28.116Z,11.83
2019-03-19T10:49:55.508Z,15.40
2019-03-19T10:52:22.922Z,10.93
2019-03-19T10:54:50.364Z,16.17
2019-03-19T10:57:17.796Z,13.60
2019-03-19T10:59:49.023Z,11.90
2019-03-19T11:02:12.680Z,12.57
2019-03-19T11:04:40.067Z,13.80
2019-03-19T11:07:07.479Z,9.33
2019-03-19T11:09:34.915Z,11.40
2019-03-19T11:12:02.363Z,18.90
2019-03-19T11:14:29.855Z,12.50
2019-03-19T11:16:57.272Z,8.63
2019-03-19T11:19:24.678Z,7.77
2019-03-19T11:21:52.129Z,7.70
2019-03-19T11:24:19.546Z,11.10
2019-03-19T11:26:47.041Z,10.03
2019-03-19T11:29:14.392Z,12.87
2019-03-19T11:31:41.822Z,10.73
2019-03-19T11:34:09.244Z,12.57
2019-03-19T11:36:36.694Z,8.70
2019-03-19T11:39:04.129Z,10.43
2019-03-19T11:41:31.567Z,16.23
2019-03-19T11:43:58.979Z,12.90
2019-03-19T11:46:26.391Z,13.83
2019-03-19T11:48:53.808Z,10.50
2019-03-19T11:51:21.249Z,11.27
2019-03-19T11:53:48.652Z,13.47
2019-03-19T11:56:16.055Z,9.23
2019-03-19T11:58:43.488Z,9.50
2019-03-19T12:01:10.926Z,10.10
2019-03-19T12:03:38.321Z,12.67
2019-03-19T12:06:05.716Z,11.50
2019-03-19T12:08:33.178Z,13.63
2019-03-19T12:11:00.642Z,10.70
2019-03-19T12:13:28.068Z,11.20
2019-03-19T12:15:55.514Z,11.30
2019-03-19T12:18:22.939Z,9.60
2019-03-19T12:20:50.335Z,10.63
2019-03-19T12:23:17.751Z,12.47
2019-03-19T12:25:45.157Z,11.57
2019-03-19T12:28:12.585Z,11.63
2019-03-19T12:30:39.999Z,8.53
2019-03-19T12:33:07.397Z,10.27
2019-03-19T12:35:34.821Z,8.87
2019-03-19T12:38:02.216Z,6.37
2019-03-19T12:40:36.908Z,9.07
2019-03-19T12:42:57.048Z,9.57
2019-03-19T12:45:24.442Z,12.80
2019-03-19T12:47:51.870Z,12.00
2019-03-19T12:50:19.312Z,9.23
2019-03-19T12:52:46.711Z,14.70
2019-03-19T12:55:14.134Z,7.27
2019-03-19T12:57:41.556Z,14.33
2019-03-19T13:00:08.955Z,10.70
2019-03-19T13:02:36.399Z,8.17
2019-03-19T13:05:03.929Z,11.23
2019-03-19T13:07:31.361Z,9.27
2019-03-19T13:09:58.849Z,9.43
2019-03-19T13:12:26.298Z,10.60
2019-03-19T13:14:53.720Z,12.40
2019-03-19T13:17:21.260Z,8.77
2019-03-19T13:19:48.685Z,15.93
2019-03-19T13:22:16.135Z,7.87
2019-03-19T13:24:43.560Z,6.70
2019-03-19T13:27:11.025Z,11.50
2019-03-19T13:29:38.433Z,8.43
2019-03-19T13:32:05.847Z,12.93
2019-03-19T13:34:33.272Z,9.17
2019-03-19T13:37:00.780Z,10.73
2019-03-19T13:39:28.174Z,8.67
2019-03-19T13:41:55.606Z,12.47
2019-03-19T13:44:23.080Z,15.17
2019-03-19T13:46:50.528Z,9.03
2019-03-19T13:49:17.917Z,10.13
2019-03-19T13:51:45.342Z,9.67
2019-03-19T13:54:12.736Z,10.20
2019-03-19T13:56:40.142Z,8.43
2019-03-19T13:59:07.560Z,12.23
2019-03-19T14:01:34.986Z,10.47
2019-03-19T14:04:02.397Z,9.73
2019-03-19T14:06:29.808Z,7.13
2019-03-19T14:08:57.229Z,9.40
2019-03-19T14:11:24.646Z,15.37
2019-03-19T14:13:52.076Z,17.73
2019-03-19T14:16:19.559Z,13.27
2019-03-19T14:18:46.970Z,9.87
2019-03-19T14:21:14.384Z,12.93
2019-03-19T14:23:41.911Z,8.67
2019-03-19T14:26:09.305Z,10.80
2019-03-19T14:28:36.731Z,8.93
2019-03-19T14:31:08.999Z,8.77
2019-03-19T14:33:31.719Z,8.50
2019-03-19T14:35:59.103Z,13.60
2019-03-19T14:38:26.637Z,10.93
2019-03-19T14:40:54.078Z,11.37
2019-03-19T14:43:21.507Z,7.67
2019-03-19T14:45:49.000Z,6.90
2019-03-19T14:48:16.416Z,7.17
2019-03-19T14:50:43.819Z,9.33
2019-03-19T14:53:11.264Z,8.43
2019-03-19T14:55:38.661Z,8.70
2019-03-19T14:58:06.056Z,9.30
2019-03-19T15:00:35.399Z,10.00
2019-03-19T15:03:00.908Z,11.77
2019-03-19T15:05:28.325Z,7.63
2019-03-19T15:07:55.732Z,17.17
2019-03-19T15:10:24.147Z,11.57
2019-03-19T15:12:51.547Z,10.57
2019-03-19T15:15:21.853Z,10.20
2019-03-19T15:17:49.293Z,12.87
2019-03-19T15:20:16.715Z,11.97
2019-03-19T15:22:44.131Z,15.57
2019-03-19T15:25:11.570Z,12.00
2019-03-19T15:27:38.979Z,9.23
2019-03-19T15:30:15.374Z,12.50
2019-03-19T15:32:42.809Z,11.97
2019-03-19T15:35:10.248Z,7.47
2019-03-19T15:37:37.684Z,10.80
2019-03-19T15:40:05.090Z,9.97
2019-03-19T15:42:32.515Z,10.10
2019-03-19T15:44:59.917Z,13.50
2019-03-19T15:47:27.360Z,11.33
2019-03-19T15:49:54.765Z,16.90
2019-03-19T15:52:22.161Z,14.20
2019-03-19T15:54:49.606Z,9.37
2019-03-19T15:57:17.291Z,9.63
2019-03-19T15:59:44.716Z,11.87
2019-03-19T16:02:12.135Z,11.30
2019-03-19T16:04:39.533Z,13.47
2019-03-19T16:07:06.950Z,11.67
2019-03-19T16:09:34.366Z,14.47
2019-03-19T16:12:01.805Z,12.10
2019-03-19T16:14:29.226Z,11.83
2019-03-19T16:16:56.663Z,14.13
2019-03-19T16:19:24.095Z,11.37
2019-03-19T16:21:51.498Z,12.57
2019-03-19T16:24:18.949Z,12.37
2019-03-19T16:26:46.406Z,15.67
2019-03-19T16:29:13.807Z,11.47
2019-03-19T16:31:50.593Z,10.87
2019-03-19T16:34:08.655Z,14.23
2019-03-19T16:36:36.073Z,12.13
2019-03-19T16:39:03.487Z,14.80
2019-03-19T16:41:30.928Z,14.60
2019-03-19T16:43:58.330Z,17.60
2019-03-19T16:46:25.747Z,18.67
2019-03-19T16:48:53.143Z,14.43
2019-03-19T16:51:20.579Z,9.37
2019-03-19T16:53:47.999Z,9.23
2019-03-19T16:56:15.405Z,14.87
2019-03-19T16:58:42.845Z,19.60
2019-03-19T17:01:10.263Z,11.10
2019-03-19T17:03:37.674Z,12.13
2019-03-19T17:06:05.182Z,13.77
2019-03-19T17:08:32.596Z,14.40
2019-03-19T17:11:00.039Z,11.27
2019-03-19T17:13:27.450Z,11.67
2019-03-19T17:15:54.852Z,13.93
2019-03-19T17:18:22.274Z,11.90
2019-03-19T17:20:49.702Z,10.20
2019-03-19T17:23:17.111Z,14.13
2019-03-19T17:25:44.532Z,13.40
2019-03-19T17:28:21.873Z,7.33
2019-03-19T17:30:39.366Z,12.40
2019-03-19T17:33:06.789Z,10.73
2019-03-19T17:35:34.205Z,14.53
2019-03-19T17:38:01.662Z,17.47
2019-03-19T17:40:29.055Z,14.87
2019-03-19T17:42:56.505Z,15.63
2019-03-19T17:45:23.932Z,18.57
2019-03-19T17:47:51.426Z,15.87
2019-03-19T17:50:30.660Z,16.93
2019-03-19T17:52:58.080Z,17.23
2019-03-19T17:55:25.486Z,11.87
2019-03-19T17:57:52.919Z,16.60
2019-03-19T18:00:29.523Z,14.37
2019-03-19T18:02:57.059Z,14.93
2019-03-19T18:05:24.488Z,13.73
2019-03-19T18:07:51.922Z,13.87
2019-03-19T18:10:19.353Z,12.47
2019-03-19T18:12:46.775Z,12.30
2019-03-19T18:15:16.944Z,15.73
2019-03-19T18:17:44.371Z,10.20
2019-03-19T18:20:11.804Z,13.37
2019-03-19T18:22:39.240Z,11.97
2019-03-19T18:25:06.682Z,15.90
2019-03-19T18:27:34.086Z,10.77
2019-03-19T18:30:01.571Z,14.63
2019-03-19T18:32:35.004Z,12.57
2019-03-19T18:34:56.427Z,16.03
2019-03-19T18:37:23.878Z,13.57
2019-03-19T18:39:51.364Z,18.27
2019-03-19T18:42:18.772Z,22.13
2019-03-19T18:44:46.170Z,22.13
2019-03-19T18:47:13.612Z,19.30
2019-03-19T18:49:41.035Z,20.27
2019-03-19T18:52:08.510Z,16.80
2019-03-19T18:54:35.908Z,13.60
2019-03-19T18:57:03.352Z,13.40
2019-03-19T18:59:30.765Z,16.90
2019-03-19T19:01:58.196Z,10.97
2019-03-19T19:04:25.621Z,12.53
2019-03-19T19:06:53.086Z,16.43
2019-03-19T19:09:20.477Z,8.67
2019-03-19T19:11:47.889Z,15.93
2019-03-19T19:14:15.322Z,15.40
2019-03-19T19:16:42.747Z,15.43
2019-03-19T19:19:10.175Z,14.00
2019-03-19T19:21:37.616Z,11.10
2019-03-19T19:24:05.029Z,11.17
2019-03-19T19:26:32.469Z,14.83
2019-03-19T19:28:59.882Z,14.03
2019-03-19T19:31:27.319Z,13.57
2019-03-19T19:33:54.746Z,18.77
2019-03-19T19:36:22.163Z,15.17
2019-03-19T19:38:49.596Z,14.90
2019-03-19T19:41:17.000Z,18.60
2019-03-19T19:43:44.428Z,23.07
2019-03-19T19:46:11.845Z,16.20
2019-03-19T19:48:39.276Z,24.00
2019-03-19T19:51:06.709Z,14.23
2019-03-19T19:53:34.149Z,17.43
2019-03-19T19:56:01.555Z,16.33
2019-03-19T19:58:29.014Z,14.37
2019-03-19T20:00:56.436Z,18.83
2019-03-19T20:03:24.099Z,14.67
2019-03-19T20:05:51.544Z,18.00
2019-03-19T20:08:18.970Z,20.40
2019-03-19T20:10:46.507Z,17.43
2019-03-19T20:13:13.928Z,19.77
2019-03-19T20:15:41.357Z,16.27
2019-03-19T20:18:08.842Z,20.23
2019-03-19T20:20:36.317Z,15.57
2019-03-19T20:23:03.722Z,15.60
2019-03-19T20:25:31.157Z,15.43
2019-03-19T20:27:58.552Z,14.73
2019-03-19T20:30:25.961Z,15.63
2019-03-19T20:32:53.398Z,11.10
2019-03-19T20:35:20.833Z,13.63
2019-03-19T20:37:48.411Z,15.40
2019-03-19T20:40:15.823Z,17.20
2019-03-19T20:42:43.314Z,13.37
2019-03-19T20:45:10.714Z,13.97
2019-03-19T20:47:38.144Z,18.40
2019-03-19T20:50:11.376Z,18.23
2019-03-19T20:52:38.823Z,14.87
2019-03-19T20:55:06.252Z,19.10
2019-03-19T20:57:33.687Z,18.53
2019-03-19T21:00:01.191Z,17.17
2019-03-19T21:02:28.573Z,15.00
2019-03-19T21:04:56.007Z,19.13
2019-03-19T21:07:23.419Z,18.87
2019-03-19T21:09:50.884Z,16.60
2019-03-19T21:12:18.323Z,16.83
2019-03-19T21:14:45.730Z,17.50
2019-03-19T21:17:13.135Z,16.23
2019-03-19T21:19:40.573Z,13.90
2019-03-19T21:22:07.979Z,17.83
2019-03-19T21:24:35.458Z,21.67
2019-03-19T21:27:02.913Z,18.63
2019-03-19T21:29:30.303Z,17.17
2019-03-19T21:31:57.707Z,19.37
2019-03-19T21:34:25.170Z,16.27
2019-03-19T21:36:52.575Z,19.87
2019-03-19T21:39:20.010Z,19.40
2019-03-19T21:41:47.412Z,15.63
2019-03-19T21:44:14.818Z,13.43
2019-03-19T21:46:42.252Z,16.50
2019-03-19T21:49:09.707Z,16.23
2019-03-19T21:51:37.180Z,15.40
2019-03-19T21:54:04.566Z,14.63
2019-03-19T21:56:31.976Z,14.87
2019-03-19T21:58:59.397Z,16.47
2019-03-19T22:01:26.881Z,17.60
2019-03-19T22:04:02.726Z,15.87
2019-03-19T22:06:21.840Z,15.30
2019-03-19T22:08:49.175Z,17.73
2019-03-19T22:11:16.564Z,13.37
2019-03-19T22:13:43.979Z,18.70
2019-03-19T22:16:11.438Z,19.53
2019-03-19T22:18:38.854Z,17.07
2019-03-19T22:21:06.260Z,19.40
2019-03-19T22:23:33.748Z,22.53
2019-03-19T22:26:01.194Z,17.77
2019-03-19T22:28:28.648Z,20.37
2019-03-19T22:30:56.064Z,18.10
2019-03-19T22:33:23.505Z,16.97
2019-03-19T22:35:50.946Z,17.30
2019-03-19T22:38:18.355Z,15.23
2019-03-19T22:40:45.823Z,18.73
2019-03-19T22:43:13.271Z,19.80
2019-03-19T22:45:40.709Z,21.63
2019-03-19T22:48:08.117Z,17.27
2019-03-19T22:50:35.554Z,18.87
2019-03-19T22:53:03.002Z,22.80
2019-03-19T22:55:30.458Z,18.20
2019-03-19T22:58:00.676Z,18.70
2019-03-19T23:00:34.063Z,20.90
2019-03-19T23:03:01.607Z,24.33
2019-03-19T23:05:31.464Z,25.57
2019-03-19T23:07:58.907Z,25.50
2019-03-19T23:10:26.320Z,21.63
2019-03-19T23:12:53.777Z,24.10
2019-03-19T23:15:21.195Z,23.47
2019-03-19T23:17:48.629Z,20.50
2019-03-19T23:20:16.043Z,21.30
2019-03-19T23:22:43.456Z,23.20
2019-03-19T23:25:10.883Z,27.27
2019-03-19T23:27:38.317Z,24.13
2019-03-19T23:30:14.402Z,27.13
2019-03-19T23:32:41.846Z,24.90
2019-03-19T23:35:09.324Z,22.77
2019-03-19T23:37:36.820Z,20.40
2019-03-19T23:40:04.258Z,23.43
2019-03-19T23:42:31.673Z,20.00
2019-03-19T23:44:59.113Z,25.37
2019-03-19T23:47:29.422Z,23.37
2019-03-19T23:49:56.859Z,23.13
2019-03-19T23:52:27.209Z,26.37
2019-03-19T23:54:54.622Z,24.57
2019-03-19T23:57:22.056Z,18.97
2019-03-19T23:59:52.009Z,23.90
